KCMI/CMI METAR and TAF weather

Enter ICAO airport designator
Station Type Date Time Source
KCMI METAR 2020/09/18 22:53 UTC NOAA

KCMI 182253Z 02009KT 10SM CLR 17/04 A3028 RMK AO2 SLP254 T01670039


Station Type Date Time Source
KCMI Decoded METAR 2020/09/18 22:53 UTC NOAA

UNIV OF ILLINOIS-WILLARD, IL, United States (KCMI) 40-02N 088-16W 228M
Sep 18, 2020 - 06:53 PM EDT / 2020.09.18 2253 UTC
Wind: from the NNE (020 degrees) at 10 MPH (9 KT):0
Visibility: 10 mile(s):0
Sky conditions: clear
Temperature: 62.1 F (16.7 C)
Dew Point: 39.0 F (3.9 C)
Relative Humidity: 42%
Pressure (altimeter): 30.28 in. Hg (1025 hPa)
ob: KCMI 182253Z 02009KT 10SM CLR 17/04 A3028 RMK AO2 SLP254 T01670039
cycle: 23

Station Type Date Time Source
KCMI TAF 2020/09/18 21:51 UTC NOAA

TAF
AMD KCMI 182048Z 1821/1918 04013G20KT P6SM SKC
FM190000 04006KT P6SM SKC
FM191400 08008KT P6SM SKC

Example: see airport list